Aviation Digital Data Service (ADDS)

Output produced by METARs form (1437 UTC 19 April 2019)
found at http://www.aviationweather.gov/metar/data/
 
METAR text: VHHH 191430Z 09017KT 9999 FEW015 SCT030 23/20 Q1008 NOSIG
Conditions at: VHHH (HONG KONG INTL , HK) observed 1430 UTC 19 April 2019
Temperature: 23.0°C (73°F)
Dewpoint: 20.0°C (68°F) [RH = 83%]
Pressure (altimeter): 29.76 inches Hg (1008.0 mb)
Winds: from the E (90 degrees) at 20 MPH (17 knots; 8.7 m/s)
Visibility: 6 or more miles (10+ km)
Ceiling: at least 12,000 feet AGL
Clouds: few clouds at 1500 feet AGL
scattered clouds at 3000 feet AGL
Weather: no significant weather observed at this time

METAR text: VHHH 191400Z 09015KT 9999 FEW012 SCT030 23/20 Q1008 NOSIG
Conditions at: VHHH (HONG KONG INTL , HK) observed 1400 UTC 19 April 2019
Temperature: 23.0°C (73°F)
Dewpoint: 20.0°C (68°F) [RH = 83%]
Pressure (altimeter): 29.76 inches Hg (1008.0 mb)
Winds: from the E (90 degrees) at 17 MPH (15 knots; 7.7 m/s)
Visibility: 6 or more miles (10+ km)
Ceiling: at least 12,000 feet AGL
Clouds: few clouds at 1200 feet AGL
scattered clouds at 3000 feet AGL
Weather: no significant weather observed at this time

METAR text: VHHH 191330Z 09014KT 9999 FEW010 SCT030 23/21 Q1008 NOSIG
Conditions at: VHHH (HONG KONG INTL , HK) observed 1330 UTC 19 April 2019
Temperature: 23.0°C (73°F)
Dewpoint: 21.0°C (70°F) [RH = 89%]
Pressure (altimeter): 29.76 inches Hg (1008.0 mb)
Winds: from the E (90 degrees) at 16 MPH (14 knots; 7.2 m/s)
Visibility: 6 or more miles (10+ km)
Ceiling: at least 12,000 feet AGL
Clouds: few clouds at 1000 feet AGL
scattered clouds at 3000 feet AGL
Weather: no significant weather observed at this time

METAR text: VHHH 191300Z 09014KT 9999 FEW010 SCT030 23/21 Q1007 NOSIG
Conditions at: VHHH (HONG KONG INTL , HK) observed 1300 UTC 19 April 2019
Temperature: 23.0°C (73°F)
Dewpoint: 21.0°C (70°F) [RH = 89%]
Pressure (altimeter): 29.73 inches Hg (1007.0 mb)
Winds: from the E (90 degrees) at 16 MPH (14 knots; 7.2 m/s)
Visibility: 6 or more miles (10+ km)
Ceiling: at least 12,000 feet AGL
Clouds: few clouds at 1000 feet AGL
scattered clouds at 3000 feet AGL
Weather: no significant weather observed at this time

METAR text: VHHH 191230Z 10015KT 9999 -SHRA FEW010 SCT025 23/21 Q1007 NOSIG
Conditions at: VHHH (HONG KONG INTL , HK) observed 1230 UTC 19 April 2019
Temperature: 23.0°C (73°F)
Dewpoint: 21.0°C (70°F) [RH = 89%]
Pressure (altimeter): 29.73 inches Hg (1007.0 mb)
Winds: from the E (100 degrees) at 17 MPH (15 knots; 7.7 m/s)
Visibility: 6 or more miles (10+ km)
Ceiling: at least 12,000 feet AGL
Clouds: few clouds at 1000 feet AGL
scattered clouds at 2500 feet AGL
Weather: -SHRA  (light rain showers)

METAR text: VHHH 191200Z 10014KT 9999 -SHRA FEW012 SCT028 23/21 Q1007 NOSIG
Conditions at: VHHH (HONG KONG INTL , HK) observed 1200 UTC 19 April 2019
Temperature: 23.0°C (73°F)
Dewpoint: 21.0°C (70°F) [RH = 89%]
Pressure (altimeter): 29.73 inches Hg (1007.0 mb)
Winds: from the E (100 degrees) at 16 MPH (14 knots; 7.2 m/s)
Visibility: 6 or more miles (10+ km)
Ceiling: at least 12,000 feet AGL
Clouds: few clouds at 1200 feet AGL
scattered clouds at 2800 feet AGL
Weather: -SHRA  (light rain showers)

METAR text: VHHH 191130Z 09014KT 9999 -SHRA FEW012 SCT028 23/20 Q1007 NOSIG
Conditions at: VHHH (HONG KONG INTL , HK) observed 1130 UTC 19 April 2019
Temperature: 23.0°C (73°F)
Dewpoint: 20.0°C (68°F) [RH = 83%]
Pressure (altimeter): 29.73 inches Hg (1007.0 mb)
Winds: from the E (90 degrees) at 16 MPH (14 knots; 7.2 m/s)
Visibility: 6 or more miles (10+ km)
Ceiling: at least 12,000 feet AGL
Clouds: few clouds at 1200 feet AGL
scattered clouds at 2800 feet AGL
Weather: -SHRA  (light rain showers)

METAR text: VHHH 191100Z 09014KT 9999 -SHRA FEW012 SCT028 23/21 Q1006 NOSIG
Conditions at: VHHH (HONG KONG INTL , HK) observed 1100 UTC 19 April 2019
Temperature: 23.0°C (73°F)
Dewpoint: 21.0°C (70°F) [RH = 89%]
Pressure (altimeter): 29.70 inches Hg (1006.0 mb)
Winds: from the E (90 degrees) at 16 MPH (14 knots; 7.2 m/s)
Visibility: 6 or more miles (10+ km)
Ceiling: at least 12,000 feet AGL
Clouds: few clouds at 1200 feet AGL
scattered clouds at 2800 feet AGL
Weather: -SHRA  (light rain showers)

METAR text: VHHH 191030Z 09015KT 9999 -SHRA FEW009 SCT025 23/20 Q1006 NOSIG
Conditions at: VHHH (HONG KONG INTL , HK) observed 1030 UTC 19 April 2019
Temperature: 23.0°C (73°F)
Dewpoint: 20.0°C (68°F) [RH = 83%]
Pressure (altimeter): 29.70 inches Hg (1006.0 mb)
Winds: from the E (90 degrees) at 17 MPH (15 knots; 7.7 m/s)
Visibility: 6 or more miles (10+ km)
Ceiling: at least 12,000 feet AGL
Clouds: few clouds at 900 feet AGL
scattered clouds at 2500 feet AGL
Weather: -SHRA  (light rain showers)

METAR text: VHHH 191000Z 09011KT 9999 -SHRA FEW009 FEW020CB SCT025 BKN045 23/21 Q1006 RERA NOSIG
Conditions at: VHHH (HONG KONG INTL , HK) observed 1000 UTC 19 April 2019
Temperature: 23.0°C (73°F)
Dewpoint: 21.0°C (70°F) [RH = 89%]
Pressure (altimeter): 29.70 inches Hg (1006.0 mb)
Winds: from the E (90 degrees) at 13 MPH (11 knots; 5.7 m/s)
Visibility: 6 or more miles (10+ km)
Ceiling: 4500 feet AGL
Clouds: few clouds at 900 feet AGL
few clouds at 2000 feet AGL
scattered clouds at 2500 feet AGL
broken clouds at 4500 feet AGL
Weather: -SHRA  (light rain showers)

METAR text: VHHH 190933Z 08012KT 4400 SHRA FEW007 FEW015CB SCT020 BKN040 22/21 Q1006 TEMPO 4000 SHRA FEW008 SCT015CB BKN040
Conditions at: VHHH (HONG KONG INTL , HK) observed 0933 UTC 19 April 2019
Temperature: 22.0°C (72°F)
Dewpoint: 21.0°C (70°F) [RH = 94%]
Pressure (altimeter): 29.70 inches Hg (1006.0 mb)
Winds: from the E (80 degrees) at 14 MPH (12 knots; 6.2 m/s)
Visibility: 2.73 miles (4.39 km)
Ceiling: 4000 feet AGL
Clouds: few clouds at 700 feet AGL
few clouds at 1500 feet AGL
scattered clouds at 2000 feet AGL
broken clouds at 4000 feet AGL
Weather: SHRA  (rain showers)

METAR text: VHHH 190930Z 08012KT 7000 3000W -SHRA FEW007 FEW015CB SCT020 BKN040 22/21 Q1006 RERA TEMPO 4000 SHRA FEW008 SCT015CB BKN040
Conditions at: VHHH (HONG KONG INTL , HK) observed 0930 UTC 19 April 2019
Temperature: 22.0°C (72°F)
Dewpoint: 21.0°C (70°F) [RH = 94%]
Pressure (altimeter): 29.70 inches Hg (1006.0 mb)
Winds: from the E (80 degrees) at 14 MPH (12 knots; 6.2 m/s)
Visibility: 4 miles ( 7 km)
Ceiling: 4000 feet AGL
Clouds: few clouds at 700 feet AGL
few clouds at 1500 feet AGL
scattered clouds at 2000 feet AGL
broken clouds at 4000 feet AGL
Weather: -SHRA  (light rain showers)

METAR text: VHHH 190900Z 07012KT 7000 SHRA FEW007 FEW015CB SCT025 BKN045 22/21 Q1006 TEMPO 4000 SHRA FEW008 SCT015CB BKN040
Conditions at: VHHH (HONG KONG INTL , HK) observed 0900 UTC 19 April 2019
Temperature: 22.0°C (72°F)
Dewpoint: 21.0°C (70°F) [RH = 94%]
Pressure (altimeter): 29.70 inches Hg (1006.0 mb)
Winds: from the ENE (70 degrees) at 14 MPH (12 knots; 6.2 m/s)
Visibility: 4 miles ( 7 km)
Ceiling: 4500 feet AGL
Clouds: few clouds at 700 feet AGL
few clouds at 1500 feet AGL
scattered clouds at 2500 feet AGL
broken clouds at 4500 feet AGL
Weather: SHRA  (rain showers)

METAR text: VHHH 190830Z 07010KT 8000 -SHRA FEW007 FEW015CB SCT025 BKN045 23/21 Q1005 RERA TEMPO 4000 SHRA FEW008 SCT015CB BKN040
Conditions at: VHHH (HONG KONG INTL , HK) observed 0830 UTC 19 April 2019
Temperature: 23.0°C (73°F)
Dewpoint: 21.0°C (70°F) [RH = 89%]
Pressure (altimeter): 29.68 inches Hg (1005.0 mb)
Winds: from the ENE (70 degrees) at 12 MPH (10 knots; 5.1 m/s)
Visibility: 5 miles ( 8 km)
Ceiling: 4500 feet AGL
Clouds: few clouds at 700 feet AGL
few clouds at 1500 feet AGL
scattered clouds at 2500 feet AGL
broken clouds at 4500 feet AGL
Weather: -SHRA  (light rain showers)

METAR text: VHHH 190800Z 09010KT 070V130 5000 SHRA FEW007 FEW012CB SCT015 BKN040 22/21 Q1006 TEMPO 4000 SHRA FEW008 SCT015CB BKN040
Conditions at: VHHH (HONG KONG INTL , HK) observed 0800 UTC 19 April 2019
Temperature: 22.0°C (72°F)
Dewpoint: 21.0°C (70°F) [RH = 94%]
Pressure (altimeter): 29.70 inches Hg (1006.0 mb)
Winds: from the E (90 degrees) at 12 MPH (10 knots; 5.1 m/s)
Visibility: 3 miles ( 5 km)
Ceiling: 4000 feet AGL
Clouds: few clouds at 700 feet AGL
few clouds at 1200 feet AGL
scattered clouds at 1500 feet AGL
broken clouds at 4000 feet AGL
Weather: SHRA  (rain showers)

METAR text: VHHH 190750Z 09009KT 060V130 3900 SHRA FEW007 FEW012CB SCT015 BKN040 22/21 Q1006 RETS RERA TEMPO 4000 FEW008 SCT015CB BKN040
Conditions at: VHHH (HONG KONG INTL , HK) observed 0750 UTC 19 April 2019
Temperature: 22.0°C (72°F)
Dewpoint: 21.0°C (70°F) [RH = 94%]
Pressure (altimeter): 29.70 inches Hg (1006.0 mb)
Winds: from the E (90 degrees) at 10 MPH (9 knots; 4.6 m/s)
Visibility: 2.42 miles (3.89 km)
Ceiling: 4000 feet AGL
Clouds: few clouds at 700 feet AGL
few clouds at 1200 feet AGL
scattered clouds at 1500 feet AGL
broken clouds at 4000 feet AGL
Weather: SHRA RA  (rain showers, moderate rain)

METAR text: VHHH 190730Z 08015KT 2500 +TSRA FEW007 FEW012CB SCT015 BKN040 22/21 Q1006 WS R07L TEMPO VRB20G30KT 2000 TSRA SHRA FEW008 SCT015CB BKN040
Conditions at: VHHH (HONG KONG INTL , HK) observed 0730 UTC 19 April 2019
Temperature: 22.0°C (72°F)
Dewpoint: 21.0°C (70°F) [RH = 94%]
Pressure (altimeter): 29.70 inches Hg (1006.0 mb)
Winds: from the E (80 degrees) at 17 MPH (15 knots; 7.7 m/s)
Visibility: 1.55 miles (2.49 km)
Ceiling: 4000 feet AGL
Clouds: few clouds at 700 feet AGL
few clouds at 1200 feet AGL
scattered clouds at 1500 feet AGL
broken clouds at 4000 feet AGL
Weather: +TSRA  (heavy rain associated with thunderstorm(s))

METAR text: VHHH 190714Z 04021KT 4100 +TSRA FEW009 FEW018CB SCT020 BKN040 22/21 Q1007 TEMPO VRB20G30KT 2000 TSRA SHRA FEW008 SCT015CB BKN040
Conditions at: VHHH (HONG KONG INTL , HK) observed 0714 UTC 19 April 2019
Temperature: 22.0°C (72°F)
Dewpoint: 21.0°C (70°F) [RH = 94%]
Pressure (altimeter): 29.73 inches Hg (1007.0 mb)
Winds: from the NE (40 degrees) at 24 MPH (21 knots; 10.8 m/s)
Visibility: 2.55 miles (4.10 km)
Ceiling: 4000 feet AGL
Clouds: few clouds at 900 feet AGL
few clouds at 1800 feet AGL
scattered clouds at 2000 feet AGL
broken clouds at 4000 feet AGL
Weather: +TSRA  (heavy rain associated with thunderstorm(s))

METAR text: VHHH 190709Z 03017KT 320V070 9999 3700W -TSRA FEW009 FEW018CB SCT020 BKN040 23/21 Q1006 TEMPO VRB20G30KT 2000 TSRA SHRA FEW008 SCT015CB BKN040
Conditions at: VHHH (HONG KONG INTL , HK) observed 0709 UTC 19 April 2019
Temperature: 23.0°C (73°F)
Dewpoint: 21.0°C (70°F) [RH = 89%]
Pressure (altimeter): 29.70 inches Hg (1006.0 mb)
Winds: from the NNE (30 degrees) at 20 MPH (17 knots; 8.7 m/s)
Visibility: 6 or more miles (10+ km)
Ceiling: 4000 feet AGL
Clouds: few clouds at 900 feet AGL
few clouds at 1800 feet AGL
scattered clouds at 2000 feet AGL
broken clouds at 4000 feet AGL
Weather: -TSRA  (light rain associated with thunderstorm(s))

METAR text: VHHH 190700Z 06016KT 9999 -SHRA FEW009 FEW018CB SCT020 BKN040 23/21 Q1005 WS R07L TEMPO VRB20G30KT 2000 TSRA SHRA FEW008 SCT015CB BKN040
Conditions at: VHHH (HONG KONG INTL , HK) observed 0700 UTC 19 April 2019
Temperature: 23.0°C (73°F)
Dewpoint: 21.0°C (70°F) [RH = 89%]
Pressure (altimeter): 29.68 inches Hg (1005.0 mb)
Winds: from the ENE (60 degrees) at 18 MPH (16 knots; 8.2 m/s)
Visibility: 6 or more miles (10+ km)
Ceiling: 4000 feet AGL
Clouds: few clouds at 900 feet AGL
few clouds at 1800 feet AGL
scattered clouds at 2000 feet AGL
broken clouds at 4000 feet AGL
Weather: -SHRA  (light rain showers)

METAR text: VHHH 190630Z 09018KT 9999 FEW012 FEW020CB SCT025 BKN045 23/20 Q1006 WS R07R TEMPO VRB20G30KT 2000 TSRA SHRA FEW008 SCT015CB BKN040
Conditions at: VHHH (HONG KONG INTL , HK) observed 0630 UTC 19 April 2019
Temperature: 23.0°C (73°F)
Dewpoint: 20.0°C (68°F) [RH = 83%]
Pressure (altimeter): 29.70 inches Hg (1006.0 mb)
Winds: from the E (90 degrees) at 21 MPH (18 knots; 9.3 m/s)
Visibility: 6 or more miles (10+ km)
Ceiling: 4500 feet AGL
Clouds: few clouds at 1200 feet AGL
few clouds at 2000 feet AGL
scattered clouds at 2500 feet AGL
broken clouds at 4500 feet AGL
Weather: no significant weather observed at this time

METAR text: VHHH 190600Z 07018KT 9999 FEW012 FEW020CB SCT025 BKN045 24/20 Q1007 TEMPO VRB20G30KT 2000 TSRA SHRA FEW008 SCT015CB BKN040
Conditions at: VHHH (HONG KONG INTL , HK) observed 0600 UTC 19 April 2019
Temperature: 24.0°C (75°F)
Dewpoint: 20.0°C (68°F) [RH = 78%]
Pressure (altimeter): 29.73 inches Hg (1007.0 mb)
Winds: from the ENE (70 degrees) at 21 MPH (18 knots; 9.3 m/s)
Visibility: 6 or more miles (10+ km)
Ceiling: 4500 feet AGL
Clouds: few clouds at 1200 feet AGL
few clouds at 2000 feet AGL
scattered clouds at 2500 feet AGL
broken clouds at 4500 feet AGL
Weather: no significant weather observed at this time

METAR text: VHHH 190546Z 06023KT 9999 FEW010 FEW015CB SCT020 BKN045 24/20 Q1007 TEMPO VRB20G30KT 2000 TSRA SHRA FEW008 SCT015CB BKN040
Conditions at: VHHH (HONG KONG INTL , HK) observed 0546 UTC 19 April 2019
Temperature: 24.0°C (75°F)
Dewpoint: 20.0°C (68°F) [RH = 78%]
Pressure (altimeter): 29.73 inches Hg (1007.0 mb)
Winds: from the ENE (60 degrees) at 26 MPH (23 knots; 11.8 m/s)
Visibility: 6 or more miles (10+ km)
Ceiling: 4500 feet AGL
Clouds: few clouds at 1000 feet AGL
few clouds at 1500 feet AGL
scattered clouds at 2000 feet AGL
broken clouds at 4500 feet AGL
Weather: no significant weather observed at this time

METAR text: VHHH 190536Z VRB20KT 9999 FEW010 FEW015CB SCT020 BKN045 25/20 Q1007 WS R25R TEMPO VRB20G30KT 2000 TSRA SHRA FEW008 SCT015CB BKN040
Conditions at: VHHH (HONG KONG INTL , HK) observed 0536 UTC 19 April 2019
Temperature: 25.0°C (77°F)
Dewpoint: 20.0°C (68°F) [RH = 74%]
Pressure (altimeter): 29.73 inches Hg (1007.0 mb)
Winds: variable direction winds at 23 MPH (20 knots; 10.3 m/s)
Visibility: 6 or more miles (10+ km)
Ceiling: 4500 feet AGL
Clouds: few clouds at 1000 feet AGL
few clouds at 1500 feet AGL
scattered clouds at 2000 feet AGL
broken clouds at 4500 feet AGL
Weather: no significant weather observed at this time

METAR text: VHHH 190530Z VRB10G26KT 9999 FEW010 FEW015CB SCT020 BKN045 25/20 Q1007 WS R25R TEMPO VRB20G30KT 2000 TSRA SHRA FEW008 SCT015CB BKN040
Conditions at: VHHH (HONG KONG INTL , HK) observed 0530 UTC 19 April 2019
Temperature: 25.0°C (77°F)
Dewpoint: 20.0°C (68°F) [RH = 74%]
Pressure (altimeter): 29.73 inches Hg (1007.0 mb)
Winds: variable direction winds at 12 MPH (10 knots; 5.1 m/s)
gusting to 30 MPH (26 knots; 13.4 m/s)
Visibility: 6 or more miles (10+ km)
Ceiling: 4500 feet AGL
Clouds: few clouds at 1000 feet AGL
few clouds at 1500 feet AGL
scattered clouds at 2000 feet AGL
broken clouds at 4500 feet AGL
Weather: no significant weather observed at this time

METAR text: VHHH 190500Z 20011KT 9999 FEW010 SCT025 29/24 Q1007 NOSIG
Conditions at: VHHH (HONG KONG INTL , HK) observed 0500 UTC 19 April 2019
Temperature: 29.0°C (84°F)
Dewpoint: 24.0°C (75°F) [RH = 74%]
Pressure (altimeter): 29.73 inches Hg (1007.0 mb)
Winds: from the SSW (200 degrees) at 13 MPH (11 knots; 5.7 m/s)
Visibility: 6 or more miles (10+ km)
Ceiling: at least 12,000 feet AGL
Clouds: few clouds at 1000 feet AGL
scattered clouds at 2500 feet AGL
Weather: no significant weather observed at this time

METAR text: VHHH 190430Z 19013KT 160V220 9999 FEW010 SCT025 30/24 Q1007 NOSIG
Conditions at: VHHH (HONG KONG INTL , HK) observed 0430 UTC 19 April 2019
Temperature: 30.0°C (86°F)
Dewpoint: 24.0°C (75°F) [RH = 70%]
Pressure (altimeter): 29.73 inches Hg (1007.0 mb)
Winds: from the S (190 degrees) at 15 MPH (13 knots; 6.7 m/s)
Visibility: 6 or more miles (10+ km)
Ceiling: at least 12,000 feet AGL
Clouds: few clouds at 1000 feet AGL
scattered clouds at 2500 feet AGL
Weather: no significant weather observed at this time

METAR text: VHHH 190400Z 19012KT 9999 FEW010 SCT025 30/24 Q1008 NOSIG
Conditions at: VHHH (HONG KONG INTL , HK) observed 0400 UTC 19 April 2019
Temperature: 30.0°C (86°F)
Dewpoint: 24.0°C (75°F) [RH = 70%]
Pressure (altimeter): 29.76 inches Hg (1008.0 mb)
Winds: from the S (190 degrees) at 14 MPH (12 knots; 6.2 m/s)
Visibility: 6 or more miles (10+ km)
Ceiling: at least 12,000 feet AGL
Clouds: few clouds at 1000 feet AGL
scattered clouds at 2500 feet AGL
Weather: no significant weather observed at this time

METAR text: VHHH 190330Z 19014KT 170V230 9999 FEW010 SCT025 29/24 Q1008 NOSIG
Conditions at: VHHH (HONG KONG INTL , HK) observed 0330 UTC 19 April 2019
Temperature: 29.0°C (84°F)
Dewpoint: 24.0°C (75°F) [RH = 74%]
Pressure (altimeter): 29.76 inches Hg (1008.0 mb)
Winds: from the S (190 degrees) at 16 MPH (14 knots; 7.2 m/s)
Visibility: 6 or more miles (10+ km)
Ceiling: at least 12,000 feet AGL
Clouds: few clouds at 1000 feet AGL
scattered clouds at 2500 feet AGL
Weather: no significant weather observed at this time

METAR text: VHHH 190300Z 19011KT 160V230 9999 FEW010 SCT025 29/24 Q1008 NOSIG
Conditions at: VHHH (HONG KONG INTL , HK) observed 0300 UTC 19 April 2019
Temperature: 29.0°C (84°F)
Dewpoint: 24.0°C (75°F) [RH = 74%]
Pressure (altimeter): 29.76 inches Hg (1008.0 mb)
Winds: from the S (190 degrees) at 13 MPH (11 knots; 5.7 m/s)
Visibility: 6 or more miles (10+ km)
Ceiling: at least 12,000 feet AGL
Clouds: few clouds at 1000 feet AGL
scattered clouds at 2500 feet AGL
Weather: no significant weather observed at this time

METAR text: VHHH 190230Z 20010KT 160V230 9999 FEW010 SCT025 29/24 Q1008 NOSIG
Conditions at: VHHH (HONG KONG INTL , HK) observed 0230 UTC 19 April 2019
Temperature: 29.0°C (84°F)
Dewpoint: 24.0°C (75°F) [RH = 74%]
Pressure (altimeter): 29.76 inches Hg (1008.0 mb)
Winds: from the SSW (200 degrees) at 12 MPH (10 knots; 5.1 m/s)
Visibility: 6 or more miles (10+ km)
Ceiling: at least 12,000 feet AGL
Clouds: few clouds at 1000 feet AGL
scattered clouds at 2500 feet AGL
Weather: no significant weather observed at this time

METAR text: VHHH 190200Z 20013KT 170V230 9999 FEW010 SCT025 29/24 Q1008 NOSIG
Conditions at: VHHH (HONG KONG INTL , HK) observed 0200 UTC 19 April 2019
Temperature: 29.0°C (84°F)
Dewpoint: 24.0°C (75°F) [RH = 74%]
Pressure (altimeter): 29.76 inches Hg (1008.0 mb)
Winds: from the SSW (200 degrees) at 15 MPH (13 knots; 6.7 m/s)
Visibility: 6 or more miles (10+ km)
Ceiling: at least 12,000 feet AGL
Clouds: few clouds at 1000 feet AGL
scattered clouds at 2500 feet AGL
Weather: no significant weather observed at this time

METAR text: VHHH 190130Z 19012KT 160V230 9999 FEW010 SCT025 29/24 Q1007 NOSIG
Conditions at: VHHH (HONG KONG INTL , HK) observed 0130 UTC 19 April 2019
Temperature: 29.0°C (84°F)
Dewpoint: 24.0°C (75°F) [RH = 74%]
Pressure (altimeter): 29.73 inches Hg (1007.0 mb)
Winds: from the S (190 degrees) at 14 MPH (12 knots; 6.2 m/s)
Visibility: 6 or more miles (10+ km)
Ceiling: at least 12,000 feet AGL
Clouds: few clouds at 1000 feet AGL
scattered clouds at 2500 feet AGL
Weather: no significant weather observed at this time

METAR text: VHHH 190100Z 19009KT 150V230 9999 FEW010 SCT025 28/24 Q1008 NOSIG
Conditions at: VHHH (HONG KONG INTL , HK) observed 0100 UTC 19 April 2019
Temperature: 28.0°C (82°F)
Dewpoint: 24.0°C (75°F) [RH = 79%]
Pressure (altimeter): 29.76 inches Hg (1008.0 mb)
Winds: from the S (190 degrees) at 10 MPH (9 knots; 4.6 m/s)
Visibility: 6 or more miles (10+ km)
Ceiling: at least 12,000 feet AGL
Clouds: few clouds at 1000 feet AGL
scattered clouds at 2500 feet AGL
Weather: no significant weather observed at this time

METAR text: VHHH 190030Z 20009KT 160V220 9999 FEW010 SCT025 29/24 Q1007 NOSIG
Conditions at: VHHH (HONG KONG INTL , HK) observed 0030 UTC 19 April 2019
Temperature: 29.0°C (84°F)
Dewpoint: 24.0°C (75°F) [RH = 74%]
Pressure (altimeter): 29.73 inches Hg (1007.0 mb)
Winds: from the SSW (200 degrees) at 10 MPH (9 knots; 4.6 m/s)
Visibility: 6 or more miles (10+ km)
Ceiling: at least 12,000 feet AGL
Clouds: few clouds at 1000 feet AGL
scattered clouds at 2500 feet AGL
Weather: no significant weather observed at this time

METAR text: VHHH 190000Z 20011KT 9999 FEW010 SCT025 28/24 Q1007 NOSIG
Conditions at: VHHH (HONG KONG INTL , HK) observed 0000 UTC 19 April 2019
Temperature: 28.0°C (82°F)
Dewpoint: 24.0°C (75°F) [RH = 79%]
Pressure (altimeter): 29.73 inches Hg (1007.0 mb)
Winds: from the SSW (200 degrees) at 13 MPH (11 knots; 5.7 m/s)
Visibility: 6 or more miles (10+ km)
Ceiling: at least 12,000 feet AGL
Clouds: few clouds at 1000 feet AGL
scattered clouds at 2500 feet AGL
Weather: no significant weather observed at this time

METAR text: VHHH 182330Z 19011KT 150V220 9999 FEW015 SCT025 28/24 Q1007 NOSIG
Conditions at: VHHH (HONG KONG INTL , HK) observed 2330 UTC 18 April 2019
Temperature: 28.0°C (82°F)
Dewpoint: 24.0°C (75°F) [RH = 79%]
Pressure (altimeter): 29.73 inches Hg (1007.0 mb)
Winds: from the S (190 degrees) at 13 MPH (11 knots; 5.7 m/s)
Visibility: 6 or more miles (10+ km)
Ceiling: at least 12,000 feet AGL
Clouds: few clouds at 1500 feet AGL
scattered clouds at 2500 feet AGL
Weather: no significant weather observed at this time

METAR text: VHHH 182300Z 18010KT 130V280 9999 FEW015 SCT025 28/23 Q1007 NOSIG
Conditions at: VHHH (HONG KONG INTL , HK) observed 2300 UTC 18 April 2019
Temperature: 28.0°C (82°F)
Dewpoint: 23.0°C (73°F) [RH = 74%]
Pressure (altimeter): 29.73 inches Hg (1007.0 mb)
Winds: from the S (180 degrees) at 12 MPH (10 knots; 5.1 m/s)
Visibility: 6 or more miles (10+ km)
Ceiling: at least 12,000 feet AGL
Clouds: few clouds at 1500 feet AGL
scattered clouds at 2500 feet AGL
Weather: no significant weather observed at this time

METAR text: VHHH 182230Z 22009KT 180V270 9999 FEW018 SCT025 27/24 Q1006 NOSIG
Conditions at: VHHH (HONG KONG INTL , HK) observed 2230 UTC 18 April 2019
Temperature: 27.0°C (81°F)
Dewpoint: 24.0°C (75°F) [RH = 84%]
Pressure (altimeter): 29.70 inches Hg (1006.0 mb)
Winds: from the SW (220 degrees) at 10 MPH (9 knots; 4.6 m/s)
Visibility: 6 or more miles (10+ km)
Ceiling: at least 12,000 feet AGL
Clouds: few clouds at 1800 feet AGL
scattered clouds at 2500 feet AGL
Weather: no significant weather observed at this time

METAR text: VHHH 182200Z 21010KT 180V240 9999 FEW018 SCT025 28/24 Q1006 NOSIG
Conditions at: VHHH (HONG KONG INTL , HK) observed 2200 UTC 18 April 2019
Temperature: 28.0°C (82°F)
Dewpoint: 24.0°C (75°F) [RH = 79%]
Pressure (altimeter): 29.70 inches Hg (1006.0 mb)
Winds: from the SSW (210 degrees) at 12 MPH (10 knots; 5.1 m/s)
Visibility: 6 or more miles (10+ km)
Ceiling: at least 12,000 feet AGL
Clouds: few clouds at 1800 feet AGL
scattered clouds at 2500 feet AGL
Weather: no significant weather observed at this time

METAR text: VHHH 182130Z 16005KT 090V240 9999 FEW018 SCT025 27/24 Q1006 NOSIG
Conditions at: VHHH (HONG KONG INTL , HK) observed 2130 UTC 18 April 2019
Temperature: 27.0°C (81°F)
Dewpoint: 24.0°C (75°F) [RH = 84%]
Pressure (altimeter): 29.70 inches Hg (1006.0 mb)
Winds: from the SSE (160 degrees) at 6 MPH (5 knots; 2.6 m/s)
Visibility: 6 or more miles (10+ km)
Ceiling: at least 12,000 feet AGL
Clouds: few clouds at 1800 feet AGL
scattered clouds at 2500 feet AGL
Weather: no significant weather observed at this time

METAR text: VHHH 182100Z 09008KT 060V130 9999 FEW018 SCT025 26/23 Q1006 NOSIG
Conditions at: VHHH (HONG KONG INTL , HK) observed 2100 UTC 18 April 2019
Temperature: 26.0°C (79°F)
Dewpoint: 23.0°C (73°F) [RH = 84%]
Pressure (altimeter): 29.70 inches Hg (1006.0 mb)
Winds: from the E (90 degrees) at 9 MPH (8 knots; 4.1 m/s)
Visibility: 6 or more miles (10+ km)
Ceiling: at least 12,000 feet AGL
Clouds: few clouds at 1800 feet AGL
scattered clouds at 2500 feet AGL
Weather: no significant weather observed at this time

METAR text: VHHH 182030Z 13010KT 100V180 9999 FEW020 27/24 Q1006 NOSIG
Conditions at: VHHH (HONG KONG INTL , HK) observed 2030 UTC 18 April 2019
Temperature: 27.0°C (81°F)
Dewpoint: 24.0°C (75°F) [RH = 84%]
Pressure (altimeter): 29.70 inches Hg (1006.0 mb)
Winds: from the SE (130 degrees) at 12 MPH (10 knots; 5.1 m/s)
Visibility: 6 or more miles (10+ km)
Ceiling: at least 12,000 feet AGL
Clouds: few clouds at 2000 feet AGL
Weather: no significant weather observed at this time

METAR text: VHHH 182000Z 12010KT 080V180 9999 FEW020 26/24 Q1006 NOSIG
Conditions at: VHHH (HONG KONG INTL , HK) observed 2000 UTC 18 April 2019
Temperature: 26.0°C (79°F)
Dewpoint: 24.0°C (75°F) [RH = 89%]
Pressure (altimeter): 29.70 inches Hg (1006.0 mb)
Winds: from the ESE (120 degrees) at 12 MPH (10 knots; 5.1 m/s)
Visibility: 6 or more miles (10+ km)
Ceiling: at least 12,000 feet AGL
Clouds: few clouds at 2000 feet AGL
Weather: no significant weather observed at this time

METAR text: VHHH 181930Z 13010KT 080V160 9999 FEW020 26/24 Q1006 NOSIG
Conditions at: VHHH (HONG KONG INTL , HK) observed 1930 UTC 18 April 2019
Temperature: 26.0°C (79°F)
Dewpoint: 24.0°C (75°F) [RH = 89%]
Pressure (altimeter): 29.70 inches Hg (1006.0 mb)
Winds: from the SE (130 degrees) at 12 MPH (10 knots; 5.1 m/s)
Visibility: 6 or more miles (10+ km)
Ceiling: at least 12,000 feet AGL
Clouds: few clouds at 2000 feet AGL
Weather: no significant weather observed at this time

METAR text: VHHH 181900Z 12010KT 080V180 9999 FEW020 25/22 Q1006 NOSIG
Conditions at: VHHH (HONG KONG INTL , HK) observed 1900 UTC 18 April 2019
Temperature: 25.0°C (77°F)
Dewpoint: 22.0°C (72°F) [RH = 83%]
Pressure (altimeter): 29.70 inches Hg (1006.0 mb)
Winds: from the ESE (120 degrees) at 12 MPH (10 knots; 5.1 m/s)
Visibility: 6 or more miles (10+ km)
Ceiling: at least 12,000 feet AGL
Clouds: few clouds at 2000 feet AGL
Weather: no significant weather observed at this time

METAR text: VHHH 181830Z 12009KT 070V160 9999 FEW020 27/23 Q1007 NOSIG
Conditions at: VHHH (HONG KONG INTL , HK) observed 1830 UTC 18 April 2019
Temperature: 27.0°C (81°F)
Dewpoint: 23.0°C (73°F) [RH = 79%]
Pressure (altimeter): 29.73 inches Hg (1007.0 mb)
Winds: from the ESE (120 degrees) at 10 MPH (9 knots; 4.6 m/s)
Visibility: 6 or more miles (10+ km)
Ceiling: at least 12,000 feet AGL
Clouds: few clouds at 2000 feet AGL
Weather: no significant weather observed at this time

METAR text: VHHH 181800Z 08013KT 9999 FEW020 25/22 Q1007 NOSIG
Conditions at: VHHH (HONG KONG INTL , HK) observed 1800 UTC 18 April 2019
Temperature: 25.0°C (77°F)
Dewpoint: 22.0°C (72°F) [RH = 83%]
Pressure (altimeter): 29.73 inches Hg (1007.0 mb)
Winds: from the E (80 degrees) at 15 MPH (13 knots; 6.7 m/s)
Visibility: 6 or more miles (10+ km)
Ceiling: at least 12,000 feet AGL
Clouds: few clouds at 2000 feet AGL
Weather: no significant weather observed at this time

METAR text: VHHH 181730Z 07014KT 9999 FEW015 25/22 Q1008 TEMPO 3000 SHRA FEW010CB SCT020
Conditions at: VHHH (HONG KONG INTL , HK) observed 1730 UTC 18 April 2019
Temperature: 25.0°C (77°F)
Dewpoint: 22.0°C (72°F) [RH = 83%]
Pressure (altimeter): 29.76 inches Hg (1008.0 mb)
Winds: from the ENE (70 degrees) at 16 MPH (14 knots; 7.2 m/s)
Visibility: 6 or more miles (10+ km)
Ceiling: at least 12,000 feet AGL
Clouds: few clouds at 1500 feet AGL
Weather: no significant weather observed at this time

METAR text: VHHH 181700Z 08014KT 050V110 9999 FEW015 25/21 Q1008 TEMPO 3000 SHRA FEW010CB SCT020
Conditions at: VHHH (HONG KONG INTL , HK) observed 1700 UTC 18 April 2019
Temperature: 25.0°C (77°F)
Dewpoint: 21.0°C (70°F) [RH = 79%]
Pressure (altimeter): 29.76 inches Hg (1008.0 mb)
Winds: from the E (80 degrees) at 16 MPH (14 knots; 7.2 m/s)
Visibility: 6 or more miles (10+ km)
Ceiling: at least 12,000 feet AGL
Clouds: few clouds at 1500 feet AGL
Weather: no significant weather observed at this time

METAR text: VHHH 181630Z 08012KT 9999 FEW015 25/21 Q1008 TEMPO 3000 SHRA FEW010CB SCT020
Conditions at: VHHH (HONG KONG INTL , HK) observed 1630 UTC 18 April 2019
Temperature: 25.0°C (77°F)
Dewpoint: 21.0°C (70°F) [RH = 79%]
Pressure (altimeter): 29.76 inches Hg (1008.0 mb)
Winds: from the E (80 degrees) at 14 MPH (12 knots; 6.2 m/s)
Visibility: 6 or more miles (10+ km)
Ceiling: at least 12,000 feet AGL
Clouds: few clouds at 1500 feet AGL
Weather: no significant weather observed at this time

METAR text: VHHH 181600Z 10009KT 9999 FEW015 25/21 Q1009 TEMPO 3000 SHRA FEW010CB SCT020
Conditions at: VHHH (HONG KONG INTL , HK) observed 1600 UTC 18 April 2019
Temperature: 25.0°C (77°F)
Dewpoint: 21.0°C (70°F) [RH = 79%]
Pressure (altimeter): 29.79 inches Hg (1009.0 mb)
Winds: from the E (100 degrees) at 10 MPH (9 knots; 4.6 m/s)
Visibility: 6 or more miles (10+ km)
Ceiling: at least 12,000 feet AGL
Clouds: few clouds at 1500 feet AGL
Weather: no significant weather observed at this time

METAR text: VHHH 181530Z 09008KT 070V130 9999 FEW030 SCT040 25/20 Q1009 TEMPO 3000 SHRA FEW010CB SCT020
Conditions at: VHHH (HONG KONG INTL , HK) observed 1530 UTC 18 April 2019
Temperature: 25.0°C (77°F)
Dewpoint: 20.0°C (68°F) [RH = 74%]
Pressure (altimeter): 29.79 inches Hg (1009.0 mb)
Winds: from the E (90 degrees) at 9 MPH (8 knots; 4.1 m/s)
Visibility: 6 or more miles (10+ km)
Ceiling: at least 12,000 feet AGL
Clouds: few clouds at 3000 feet AGL
scattered clouds at 4000 feet AGL
Weather: no significant weather observed at this time

METAR text: VHHH 181500Z 10004KT 030V190 9999 FEW030 SCT040 24/21 Q1009 TEMPO 3000 SHRA FEW010CB SCT020
Conditions at: VHHH (HONG KONG INTL , HK) observed 1500 UTC 18 April 2019
Temperature: 24.0°C (75°F)
Dewpoint: 21.0°C (70°F) [RH = 83%]
Pressure (altimeter): 29.79 inches Hg (1009.0 mb)
Winds: from the E (100 degrees) at 5 MPH (4 knots; 2.1 m/s)
Visibility: 6 or more miles (10+ km)
Ceiling: at least 12,000 feet AGL
Clouds: few clouds at 3000 feet AGL
scattered clouds at 4000 feet AGL
Weather: no significant weather observed at this time

METAR text: VHHH 181430Z 09009KT 050V160 9999 FEW010 FEW015CB SCT030 24/21 Q1009 TEMPO 3000 SHRA FEW010CB SCT020
Conditions at: VHHH (HONG KONG INTL , HK) observed 1430 UTC 18 April 2019
Temperature: 24.0°C (75°F)
Dewpoint: 21.0°C (70°F) [RH = 83%]
Pressure (altimeter): 29.79 inches Hg (1009.0 mb)
Winds: from the E (90 degrees) at 10 MPH (9 knots; 4.6 m/s)
Visibility: 6 or more miles (10+ km)
Ceiling: at least 12,000 feet AGL
Clouds: few clouds at 1000 feet AGL
few clouds at 1500 feet AGL
scattered clouds at 3000 feet AGL
Weather: no significant weather observed at this time

METAR text: VHHH 181423Z 07005KT 030V140 9999 FEW010 FEW015CB SCT030 24/21 Q1009 TEMPO 3000 SHRA FEW010CB SCT020
Conditions at: VHHH (HONG KONG INTL , HK) observed 1423 UTC 18 April 2019
Temperature: 24.0°C (75°F)
Dewpoint: 21.0°C (70°F) [RH = 83%]
Pressure (altimeter): 29.79 inches Hg (1009.0 mb)
Winds: from the ENE (70 degrees) at 6 MPH (5 knots; 2.6 m/s)
Visibility: 6 or more miles (10+ km)
Ceiling: at least 12,000 feet AGL
Clouds: few clouds at 1000 feet AGL
few clouds at 1500 feet AGL
scattered clouds at 3000 feet AGL
Weather: no significant weather observed at this time

METAR text: VHHH 181400Z 13013KT 9999 -SHRA FEW010 FEW015CB SCT030 24/21 Q1009 RETS RERA TEMPO VRB20G30KT 2000 TSRA SHRA FEW008 SCT020CB BKN040
Conditions at: VHHH (HONG KONG INTL , HK) observed 1400 UTC 18 April 2019
Temperature: 24.0°C (75°F)
Dewpoint: 21.0°C (70°F) [RH = 83%]
Pressure (altimeter): 29.79 inches Hg (1009.0 mb)
Winds: from the SE (130 degrees) at 15 MPH (13 knots; 6.7 m/s)
Visibility: 6 or more miles (10+ km)
Ceiling: at least 12,000 feet AGL
Clouds: few clouds at 1000 feet AGL
few clouds at 1500 feet AGL
scattered clouds at 3000 feet AGL
Weather: -SHRA RA  (light rain showers, moderate rain)

METAR text: VHHH 181330Z 17011KT 130V210 8000 3900E +TSRA FEW008 FEW015CB SCT020 24/20 Q1009 TEMPO VRB20G30KT 2000 TSRA SHRA FEW008 SCT020CB BKN040
Conditions at: VHHH (HONG KONG INTL , HK) observed 1330 UTC 18 April 2019
Temperature: 24.0°C (75°F)
Dewpoint: 20.0°C (68°F) [RH = 78%]
Pressure (altimeter): 29.79 inches Hg (1009.0 mb)
Winds: from the S (170 degrees) at 13 MPH (11 knots; 5.7 m/s)
Visibility: 5 miles ( 8 km)
Ceiling: at least 12,000 feet AGL
Clouds: few clouds at 800 feet AGL
few clouds at 1500 feet AGL
scattered clouds at 2000 feet AGL
Weather: +TSRA  (heavy rain associated with thunderstorm(s))

METAR text: VHHH 181321Z 13013KT 110V210 9999 VCTS -SHRA FEW008 FEW015CB SCT020 25/21 Q1008 TEMPO VRB20G30KT 2000 TSRA SHRA FEW008 SCT020CB BKN040
Conditions at: VHHH (HONG KONG INTL , HK) observed 1321 UTC 18 April 2019
Temperature: 25.0°C (77°F)
Dewpoint: 21.0°C (70°F) [RH = 79%]
Pressure (altimeter): 29.76 inches Hg (1008.0 mb)
Winds: from the SE (130 degrees) at 15 MPH (13 knots; 6.7 m/s)
Visibility: 6 or more miles (10+ km)
Ceiling: at least 12,000 feet AGL
Clouds: few clouds at 800 feet AGL
few clouds at 1500 feet AGL
scattered clouds at 2000 feet AGL
Weather: VCTS -SHRA  (thunderstorm in vicinity, light rain showers)

METAR text: VHHH 181300Z 14007KT 100V220 9999 -SHRA FEW008 FEW015CB SCT018 BKN040 26/23 Q1009 RERA TEMPO VRB20G30KT 2000 TSRA SHRA FEW008 SCT020CB BKN040
Conditions at: VHHH (HONG KONG INTL , HK) observed 1300 UTC 18 April 2019
Temperature: 26.0°C (79°F)
Dewpoint: 23.0°C (73°F) [RH = 84%]
Pressure (altimeter): 29.79 inches Hg (1009.0 mb)
Winds: from the SE (140 degrees) at 8 MPH (7 knots; 3.6 m/s)
Visibility: 6 or more miles (10+ km)
Ceiling: 4000 feet AGL
Clouds: few clouds at 800 feet AGL
few clouds at 1500 feet AGL
scattered clouds at 1800 feet AGL
broken clouds at 4000 feet AGL
Weather: -SHRA  (light rain showers)

METAR text: VHHH 181230Z 08010KT 050V140 9999 SHRA FEW008 FEW015CB SCT018 BKN040 25/24 Q1008 RETS TEMPO VRB20G30KT 2000 TSRA SHRA FEW008 SCT020CB BKN040
Conditions at: VHHH (HONG KONG INTL , HK) observed 1230 UTC 18 April 2019
Temperature: 25.0°C (77°F)
Dewpoint: 24.0°C (75°F) [RH = 94%]
Pressure (altimeter): 29.76 inches Hg (1008.0 mb)
Winds: from the E (80 degrees) at 12 MPH (10 knots; 5.1 m/s)
Visibility: 6 or more miles (10+ km)
Ceiling: 4000 feet AGL
Clouds: few clouds at 800 feet AGL
few clouds at 1500 feet AGL
scattered clouds at 1800 feet AGL
broken clouds at 4000 feet AGL
Weather: SHRA  (rain showers)

METAR text: VHHH 181200Z 06006KT 040V100 9999 -TSRA FEW008 FEW015CB SCT018 BKN040 26/24 Q1008 WS R07R TEMPO VRB20G30KT 2000 TSRA SHRA FEW008 SCT020CB BKN040
Conditions at: VHHH (HONG KONG INTL , HK) observed 1200 UTC 18 April 2019
Temperature: 26.0°C (79°F)
Dewpoint: 24.0°C (75°F) [RH = 89%]
Pressure (altimeter): 29.76 inches Hg (1008.0 mb)
Winds: from the ENE (60 degrees) at 7 MPH (6 knots; 3.1 m/s)
Visibility: 6 or more miles (10+ km)
Ceiling: 4000 feet AGL
Clouds: few clouds at 800 feet AGL
few clouds at 1500 feet AGL
scattered clouds at 1800 feet AGL
broken clouds at 4000 feet AGL
Weather: -TSRA  (light rain associated with thunderstorm(s))

METAR text: VHHH 181138Z 09011KT 070V130 9999 -TSRA FEW008 FEW015CB SCT018 BKN040 25/23 Q1007 TEMPO VRB20G30KT 2000 TSRA SHRA FEW008 SCT020CB BKN040
Conditions at: VHHH (HONG KONG INTL , HK) observed 1138 UTC 18 April 2019
Temperature: 25.0°C (77°F)
Dewpoint: 23.0°C (73°F) [RH = 89%]
Pressure (altimeter): 29.73 inches Hg (1007.0 mb)
Winds: from the E (90 degrees) at 13 MPH (11 knots; 5.7 m/s)
Visibility: 6 or more miles (10+ km)
Ceiling: 4000 feet AGL
Clouds: few clouds at 800 feet AGL
few clouds at 1500 feet AGL
scattered clouds at 1800 feet AGL
broken clouds at 4000 feet AGL
Weather: -TSRA  (light rain associated with thunderstorm(s))

METAR text: VHHH 181130Z 10014KT 9999 VCTS -SHRA FEW008 FEW015CB SCT018 BKN040 25/23 Q1007 TEMPO VRB20G30KT 2000 TSRA SHRA FEW008 SCT020CB BKN040
Conditions at: VHHH (HONG KONG INTL , HK) observed 1130 UTC 18 April 2019
Temperature: 25.0°C (77°F)
Dewpoint: 23.0°C (73°F) [RH = 89%]
Pressure (altimeter): 29.73 inches Hg (1007.0 mb)
Winds: from the E (100 degrees) at 16 MPH (14 knots; 7.2 m/s)
Visibility: 6 or more miles (10+ km)
Ceiling: 4000 feet AGL
Clouds: few clouds at 800 feet AGL
few clouds at 1500 feet AGL
scattered clouds at 1800 feet AGL
broken clouds at 4000 feet AGL
Weather: VCTS -SHRA  (thunderstorm in vicinity, light rain showers)

METAR text: VHHH 181100Z 09014KT 070V140 9999 VCTS -SHRA FEW008 FEW015CB SCT018 BKN040 25/23 Q1007 WS R07L TEMPO VRB20G30KT 2000 TSRA SHRA FEW008 SCT020CB BKN040
Conditions at: VHHH (HONG KONG INTL , HK) observed 1100 UTC 18 April 2019
Temperature: 25.0°C (77°F)
Dewpoint: 23.0°C (73°F) [RH = 89%]
Pressure (altimeter): 29.73 inches Hg (1007.0 mb)
Winds: from the E (90 degrees) at 16 MPH (14 knots; 7.2 m/s)
Visibility: 6 or more miles (10+ km)
Ceiling: 4000 feet AGL
Clouds: few clouds at 800 feet AGL
few clouds at 1500 feet AGL
scattered clouds at 1800 feet AGL
broken clouds at 4000 feet AGL
Weather: VCTS -SHRA  (thunderstorm in vicinity, light rain showers)

METAR text: VHHH 181037Z 09016KT 9999 VCTS -SHRA FEW008 FEW015CB SCT018 BKN040 25/23 Q1007 TEMPO VRB20G30KT 2000 TSRA SHRA FEW008 SCT020CB BKN040
Conditions at: VHHH (HONG KONG INTL , HK) observed 1037 UTC 18 April 2019
Temperature: 25.0°C (77°F)
Dewpoint: 23.0°C (73°F) [RH = 89%]
Pressure (altimeter): 29.73 inches Hg (1007.0 mb)
Winds: from the E (90 degrees) at 18 MPH (16 knots; 8.2 m/s)
Visibility: 6 or more miles (10+ km)
Ceiling: 4000 feet AGL
Clouds: few clouds at 800 feet AGL
few clouds at 1500 feet AGL
scattered clouds at 1800 feet AGL
broken clouds at 4000 feet AGL
Weather: VCTS -SHRA  (thunderstorm in vicinity, light rain showers)

METAR text: VHHH 181030Z 09016KT 060V120 9999 -SHRA FEW008 FEW015CB SCT018 BKN040 25/23 Q1007 TEMPO VRB20G30KT 2000 TSRA SHRA FEW008 SCT020CB BKN040
Conditions at: VHHH (HONG KONG INTL , HK) observed 1030 UTC 18 April 2019
Temperature: 25.0°C (77°F)
Dewpoint: 23.0°C (73°F) [RH = 89%]
Pressure (altimeter): 29.73 inches Hg (1007.0 mb)
Winds: from the E (90 degrees) at 18 MPH (16 knots; 8.2 m/s)
Visibility: 6 or more miles (10+ km)
Ceiling: 4000 feet AGL
Clouds: few clouds at 800 feet AGL
few clouds at 1500 feet AGL
scattered clouds at 1800 feet AGL
broken clouds at 4000 feet AGL
Weather: -SHRA  (light rain showers)

METAR text: VHHH 181000Z 11019KT 9999 -SHRA FEW008 FEW015CB SCT018 BKN040 25/23 Q1006 TEMPO VRB20G30KT 2000 TSRA SHRA FEW008 SCT020CB BKN040
Conditions at: VHHH (HONG KONG INTL , HK) observed 1000 UTC 18 April 2019
Temperature: 25.0°C (77°F)
Dewpoint: 23.0°C (73°F) [RH = 89%]
Pressure (altimeter): 29.70 inches Hg (1006.0 mb)
Winds: from the ESE (110 degrees) at 22 MPH (19 knots; 9.8 m/s)
Visibility: 6 or more miles (10+ km)
Ceiling: 4000 feet AGL
Clouds: few clouds at 800 feet AGL
few clouds at 1500 feet AGL
scattered clouds at 1800 feet AGL
broken clouds at 4000 feet AGL
Weather: -SHRA  (light rain showers)

METAR text: VHHH 180930Z 10016KT 080V160 9999 FEW008 FEW015CB SCT018 25/22 Q1006 WS R07R TEMPO VRB20G30KT 2000 TSRA SHRA FEW008 SCT020CB BKN040
Conditions at: VHHH (HONG KONG INTL , HK) observed 0930 UTC 18 April 2019
Temperature: 25.0°C (77°F)
Dewpoint: 22.0°C (72°F) [RH = 83%]
Pressure (altimeter): 29.70 inches Hg (1006.0 mb)
Winds: from the E (100 degrees) at 18 MPH (16 knots; 8.2 m/s)
Visibility: 6 or more miles (10+ km)
Ceiling: at least 12,000 feet AGL
Clouds: few clouds at 800 feet AGL
few clouds at 1500 feet AGL
scattered clouds at 1800 feet AGL
Weather: no significant weather observed at this time

METAR text: VHHH 180900Z 11019KT 100V160 9999 FEW008 FEW015CB SCT018 25/22 Q1006 TEMPO VRB20G30KT 2000 TSRA SHRA FEW008 SCT020CB BKN040
Conditions at: VHHH (HONG KONG INTL , HK) observed 0900 UTC 18 April 2019
Temperature: 25.0°C (77°F)
Dewpoint: 22.0°C (72°F) [RH = 83%]
Pressure (altimeter): 29.70 inches Hg (1006.0 mb)
Winds: from the ESE (110 degrees) at 22 MPH (19 knots; 9.8 m/s)
Visibility: 6 or more miles (10+ km)
Ceiling: at least 12,000 feet AGL
Clouds: few clouds at 800 feet AGL
few clouds at 1500 feet AGL
scattered clouds at 1800 feet AGL
Weather: no significant weather observed at this time

METAR text: VHHH 180830Z 10017KT 9999 -SHRA FEW010 SCT020 25/22 Q1007 NOSIG
Conditions at: VHHH (HONG KONG INTL , HK) observed 0830 UTC 18 April 2019
Temperature: 25.0°C (77°F)
Dewpoint: 22.0°C (72°F) [RH = 83%]
Pressure (altimeter): 29.73 inches Hg (1007.0 mb)
Winds: from the E (100 degrees) at 20 MPH (17 knots; 8.7 m/s)
Visibility: 6 or more miles (10+ km)
Ceiling: at least 12,000 feet AGL
Clouds: few clouds at 1000 feet AGL
scattered clouds at 2000 feet AGL
Weather: -SHRA  (light rain showers)

METAR text: VHHH 180800Z 11017KT 9999 FEW010 SCT022 25/22 Q1007 NOSIG
Conditions at: VHHH (HONG KONG INTL , HK) observed 0800 UTC 18 April 2019
Temperature: 25.0°C (77°F)
Dewpoint: 22.0°C (72°F) [RH = 83%]
Pressure (altimeter): 29.73 inches Hg (1007.0 mb)
Winds: from the ESE (110 degrees) at 20 MPH (17 knots; 8.7 m/s)
Visibility: 6 or more miles (10+ km)
Ceiling: at least 12,000 feet AGL
Clouds: few clouds at 1000 feet AGL
scattered clouds at 2200 feet AGL
Weather: no significant weather observed at this time

METAR text: VHHH 180730Z 11017KT 090V150 9999 FEW012 SCT022 26/22 Q1007 NOSIG
Conditions at: VHHH (HONG KONG INTL , HK) observed 0730 UTC 18 April 2019
Temperature: 26.0°C (79°F)
Dewpoint: 22.0°C (72°F) [RH = 79%]
Pressure (altimeter): 29.73 inches Hg (1007.0 mb)
Winds: from the ESE (110 degrees) at 20 MPH (17 knots; 8.7 m/s)
Visibility: 6 or more miles (10+ km)
Ceiling: at least 12,000 feet AGL
Clouds: few clouds at 1200 feet AGL
scattered clouds at 2200 feet AGL
Weather: no significant weather observed at this time

METAR text: VHHH 180700Z 10017KT 9999 FEW012 SCT022 25/22 Q1008 NOSIG
Conditions at: VHHH (HONG KONG INTL , HK) observed 0700 UTC 18 April 2019
Temperature: 25.0°C (77°F)
Dewpoint: 22.0°C (72°F) [RH = 83%]
Pressure (altimeter): 29.76 inches Hg (1008.0 mb)
Winds: from the E (100 degrees) at 20 MPH (17 knots; 8.7 m/s)
Visibility: 6 or more miles (10+ km)
Ceiling: at least 12,000 feet AGL
Clouds: few clouds at 1200 feet AGL
scattered clouds at 2200 feet AGL
Weather: no significant weather observed at this time

METAR text: VHHH 180630Z 11018KT 9999 FEW014 SCT024 26/22 Q1008 NOSIG
Conditions at: VHHH (HONG KONG INTL , HK) observed 0630 UTC 18 April 2019
Temperature: 26.0°C (79°F)
Dewpoint: 22.0°C (72°F) [RH = 79%]
Pressure (altimeter): 29.76 inches Hg (1008.0 mb)
Winds: from the ESE (110 degrees) at 21 MPH (18 knots; 9.3 m/s)
Visibility: 6 or more miles (10+ km)
Ceiling: at least 12,000 feet AGL
Clouds: few clouds at 1400 feet AGL
scattered clouds at 2400 feet AGL
Weather: no significant weather observed at this time

METAR text: VHHH 180600Z 12019KT 100V160 9999 FEW014 SCT026 26/22 Q1008 WS R07L NOSIG
Conditions at: VHHH (HONG KONG INTL , HK) observed 0600 UTC 18 April 2019
Temperature: 26.0°C (79°F)
Dewpoint: 22.0°C (72°F) [RH = 79%]
Pressure (altimeter): 29.76 inches Hg (1008.0 mb)
Winds: from the ESE (120 degrees) at 22 MPH (19 knots; 9.8 m/s)
Visibility: 6 or more miles (10+ km)
Ceiling: at least 12,000 feet AGL
Clouds: few clouds at 1400 feet AGL
scattered clouds at 2600 feet AGL
Weather: no significant weather observed at this time

METAR text: VHHH 180530Z 11017KT 9999 FEW017 SCT030 26/22 Q1009 NOSIG
Conditions at: VHHH (HONG KONG INTL , HK) observed 0530 UTC 18 April 2019
Temperature: 26.0°C (79°F)
Dewpoint: 22.0°C (72°F) [RH = 79%]
Pressure (altimeter): 29.79 inches Hg (1009.0 mb)
Winds: from the ESE (110 degrees) at 20 MPH (17 knots; 8.7 m/s)
Visibility: 6 or more miles (10+ km)
Ceiling: at least 12,000 feet AGL
Clouds: few clouds at 1700 feet AGL
scattered clouds at 3000 feet AGL
Weather: no significant weather observed at this time

METAR text: VHHH 180500Z 11017KT 7000 -SHRA FEW012 SCT036 25/22 Q1010 NOSIG
Conditions at: VHHH (HONG KONG INTL , HK) observed 0500 UTC 18 April 2019
Temperature: 25.0°C (77°F)
Dewpoint: 22.0°C (72°F) [RH = 83%]
Pressure (altimeter): 29.82 inches Hg (1010.0 mb)
Winds: from the ESE (110 degrees) at 20 MPH (17 knots; 8.7 m/s)
Visibility: 4 miles ( 7 km)
Ceiling: at least 12,000 feet AGL
Clouds: few clouds at 1200 feet AGL
scattered clouds at 3600 feet AGL
Weather: -SHRA  (light rain showers)

METAR text: VHHH 180430Z 11019KT 9999 FEW012 SCT036 26/22 Q1010 NOSIG
Conditions at: VHHH (HONG KONG INTL , HK) observed 0430 UTC 18 April 2019
Temperature: 26.0°C (79°F)
Dewpoint: 22.0°C (72°F) [RH = 79%]
Pressure (altimeter): 29.82 inches Hg (1010.0 mb)
Winds: from the ESE (110 degrees) at 22 MPH (19 knots; 9.8 m/s)
Visibility: 6 or more miles (10+ km)
Ceiling: at least 12,000 feet AGL
Clouds: few clouds at 1200 feet AGL
scattered clouds at 3600 feet AGL
Weather: no significant weather observed at this time

METAR text: VHHH 180400Z 11019KT 9999 FEW012 SCT042 26/22 Q1010 NOSIG
Conditions at: VHHH (HONG KONG INTL , HK) observed 0400 UTC 18 April 2019
Temperature: 26.0°C (79°F)
Dewpoint: 22.0°C (72°F) [RH = 79%]
Pressure (altimeter): 29.82 inches Hg (1010.0 mb)
Winds: from the ESE (110 degrees) at 22 MPH (19 knots; 9.8 m/s)
Visibility: 6 or more miles (10+ km)
Ceiling: at least 12,000 feet AGL
Clouds: few clouds at 1200 feet AGL
scattered clouds at 4200 feet AGL
Weather: no significant weather observed at this time

METAR text: VHHH 180330Z 11019KT 9999 FEW012 SCT035 26/22 Q1011 NOSIG
Conditions at: VHHH (HONG KONG INTL , HK) observed 0330 UTC 18 April 2019
Temperature: 26.0°C (79°F)
Dewpoint: 22.0°C (72°F) [RH = 79%]
Pressure (altimeter): 29.85 inches Hg (1011.0 mb)
Winds: from the ESE (110 degrees) at 22 MPH (19 knots; 9.8 m/s)
Visibility: 6 or more miles (10+ km)
Ceiling: at least 12,000 feet AGL
Clouds: few clouds at 1200 feet AGL
scattered clouds at 3500 feet AGL
Weather: no significant weather observed at this time

METAR text: VHHH 180300Z 12013KT 100V160 9999 FEW012 SCT038 26/21 Q1011 NOSIG
Conditions at: VHHH (HONG KONG INTL , HK) observed 0300 UTC 18 April 2019
Temperature: 26.0°C (79°F)
Dewpoint: 21.0°C (70°F) [RH = 74%]
Pressure (altimeter): 29.85 inches Hg (1011.0 mb)
Winds: from the ESE (120 degrees) at 15 MPH (13 knots; 6.7 m/s)
Visibility: 6 or more miles (10+ km)
Ceiling: at least 12,000 feet AGL
Clouds: few clouds at 1200 feet AGL
scattered clouds at 3800 feet AGL
Weather: no significant weather observed at this time

Forecast for: VHHH (HONG KONG INTL , HK)
Text: TAF VHHH 191100Z 1912/2018 15010KT 8000 FEW010 SCT025 TX30/2006Z TN23/1912Z TN25/1922Z
Forecast period: 1200 UTC 19 April 2019 to 1800 UTC 20 April 2019
Forecast type: FROM: standard forecast or significant change
Winds: from the SSE (150 degrees) at 12 MPH (10 knots; 5.1 m/s)
Visibility: 5 miles (8 km)
Ceiling: at least 12,000 feet AGL
Clouds: few clouds at 1000 feet AGL
scattered clouds at 2500 feet AGL
Weather: no significant weather forecast for this period
Text: TEMPO 1912/1918 09010KT
Forecast period: 1200 to 1800 UTC 19 April 2019
Forecast type: TEMPORARY: The following changes expected for less than half the time period
Winds: from the E (90 degrees) at 12 MPH (10 knots; 5.1 m/s)
Visibility: missing
Ceiling: unknown
Clouds: missing
Weather: no significant weather forecast for this period
Text: TEMPO 1912/1915 3000 -TSRA SHRA FEW008 SCT015CB BKN040
Forecast period: 1200 to 1500 UTC 19 April 2019
Forecast type: TEMPORARY: The following changes expected for less than half the time period
Visibility: 1.86 miles (2.99 km)
Ceiling: 4000 feet AGL
Clouds: few clouds at 800 feet AGL
scattered clouds at 1500 feet AGL
broken clouds at 4000 feet AGL
Weather: -TSRA SHRA  (light rain associated with thunderstorm(s), rain showers)
Text: TEMPO 1915/1918 3000 SHRA FEW010CB SCT020
Forecast period: 1500 to 1800 UTC 19 April 2019
Forecast type: TEMPORARY: The following changes expected for less than half the time period
Visibility: 1.86 miles (2.99 km)
Ceiling: at least 12,000 feet AGL
Clouds: few clouds at 1000 feet AGL
scattered clouds at 2000 feet AGL
Weather: SHRA  (rain showers)
Text: TEMPO 2003/2009 4000 SHRA FEW010CB SCT020
Forecast period: 0300 to 0900 UTC 20 April 2019
Forecast type: TEMPORARY: The following changes expected for less than half the time period
Visibility: 2.49 miles (4.01 km)
Ceiling: at least 12,000 feet AGL
Clouds: few clouds at 1000 feet AGL
scattered clouds at 2000 feet AGL
Weather: SHRA  (rain showers)